Time;durP1;ratioP1;P1;durP2;ratioP2;P2;SDS_P1;SDS_P2;PMS_P1;PMS_P2;Temp;Humidity;BMP_temperature;BMP_pressure;BME280_temperature;BME280_humidity;BME280_pressure;Samples;Min_cycle;Max_cycle;Signal;HPM_P1;HPM_P2
2023/06/30 00:00:11;;;;;;;4.70;3.58;;;;;;;;;;5072665;28;20210;-71
2023/06/30 00:02:37;;;;;;;7.68;3.33;;;;;;;;;;5083335;28;20192;-71
2023/06/30 00:05:02;;;;;;;4.38;3.30;;;;;;;;;;5079735;28;20205;-71
2023/06/30 00:07:27;;;;;;;5.00;3.17;;;;;;;;;;5085728;28;20195;-70
2023/06/30 00:09:53;;;;;;;6.85;3.70;;;;;;;;;;5087825;28;20196;-70
2023/06/30 00:12:18;;;;;;;5.00;3.00;;;;;;;;;;5092676;28;20545;-70
2023/06/30 00:14:43;;;;;;;10.90;3.70;;;;;;;;;;5090671;28;20211;-70
2023/06/30 00:17:09;;;;;;;8.40;3.90;;;;;;;;;;5087692;28;20743;-71
2023/06/30 00:19:35;;;;;;;9.95;4.00;;;;;;;;;;5075129;28;20262;-71
2023/06/30 00:22:01;;;;;;;10.30;4.18;;;;;;;;;;5087198;28;20188;-70
2023/06/30 00:24:27;;;;;;;5.88;3.67;;;;;;;;;;5073525;28;20189;-71
2023/06/30 00:26:53;;;;;;;10.07;3.70;;;;;;;;;;5075852;28;20184;-71
2023/06/30 00:29:18;;;;;;;7.32;4.25;;;;;;;;;;5078499;28;20718;-70
2023/06/30 00:31:43;;;;;;;8.30;4.10;;;;;;;;;;5079232;28;20196;-71
2023/06/30 00:34:09;;;;;;;7.50;4.25;;;;;;;;;;5083524;28;20196;-71
2023/06/30 00:36:34;;;;;;;10.68;4.75;;;;;;;;;;5072237;28;20236;-71
2023/06/30 00:38:59;;;;;;;10.63;4.72;;;;;;;;;;5084066;28;20582;-71
2023/06/30 00:41:25;;;;;;;11.63;4.20;;;;;;;;;;5078729;28;20233;-70
2023/06/30 00:43:50;;;;;;;8.10;4.43;;;;;;;;;;5085024;28;20199;-70
2023/06/30 00:46:17;;;;;;;8.02;3.95;;;;;;;;;;5091132;28;20192;-70
2023/06/30 00:48:43;;;;;;;10.90;4.75;;;;;;;;;;5083401;28;20244;-69
2023/06/30 00:51:10;;;;;;;9.73;4.55;;;;;;;;;;5073604;28;20196;-70
2023/06/30 00:53:36;;;;;;;7.00;3.92;;;;;;;;;;5074248;28;20188;-70
2023/06/30 00:56:01;;;;;;;8.38;3.85;;;;;;;;;;5086795;28;20260;-71
2023/06/30 00:58:27;;;;;;;5.70;3.63;;;;;;;;;;5072709;28;20677;-70
2023/06/30 01:00:59;;;;;;;8.55;4.43;;;;;;;;;;5082721;28;20808;-71
2023/06/30 01:03:33;;;;;;;11.07;3.88;;;;;;;;;;5082617;28;20660;-72
2023/06/30 01:06:25;;;;;;;11.55;3.75;;;;;;;;;;5080848;28;20196;-71
2023/06/30 01:09:17;;;;;;;8.45;4.57;;;;;;;;;;5075808;28;20295;-71
2023/06/30 01:11:43;;;;;;;7.10;3.15;;;;;;;;;;5082443;28;20227;-71
2023/06/30 01:14:10;;;;;;;12.23;3.72;;;;;;;;;;5075817;28;20197;-71
2023/06/30 01:16:38;;;;;;;8.25;3.35;;;;;;;;;;5071770;28;20205;-71
2023/06/30 01:19:08;;;;;;;15.18;3.97;;;;;;;;;;5078478;28;20279;-71
2023/06/30 01:21:35;;;;;;;9.88;3.00;;;;;;;;;;5087302;28;20227;-71
2023/06/30 01:24:05;;;;;;;6.65;2.72;;;;;;;;;;5081883;28;20184;-71
2023/06/30 01:26:34;;;;;;;9.50;2.85;;;;;;;;;;5087532;28;20184;-71
2023/06/30 01:29:01;;;;;;;6.80;3.13;;;;;;;;;;5079744;28;20496;-70
2023/06/30 01:31:27;;;;;;;8.20;2.67;;;;;;;;;;5079254;28;20188;-70
2023/06/30 01:33:53;;;;;;;11.38;2.55;;;;;;;;;;5085595;28;20196;-71
2023/06/30 01:36:19;;;;;;;10.65;3.28;;;;;;;;;;5085721;28;20196;-70
2023/06/30 01:38:44;;;;;;;9.15;2.72;;;;;;;;;;5088043;28;20257;-71
2023/06/30 01:41:11;;;;;;;13.93;3.78;;;;;;;;;;5080937;28;20583;-70
2023/06/30 01:43:36;;;;;;;10.90;3.72;;;;;;;;;;5084398;28;20698;-71
2023/06/30 01:46:03;;;;;;;8.77;2.90;;;;;;;;;;5083324;28;20267;-68
2023/06/30 01:48:29;;;;;;;13.20;2.88;;;;;;;;;;5081798;28;20269;-69
2023/06/30 01:50:55;;;;;;;12.88;2.95;;;;;;;;;;5086085;28;20234;-69
2023/06/30 01:53:21;;;;;;;13.75;3.53;;;;;;;;;;5090206;28;20309;-69
2023/06/30 01:55:47;;;;;;;11.27;3.47;;;;;;;;;;5075681;28;20275;-70
2023/06/30 01:58:13;;;;;;;11.00;3.67;;;;;;;;;;5088866;28;20239;-70
2023/06/30 02:00:38;;;;;;;6.63;3.80;;;;;;;;;;5086933;28;20321;-70
2023/06/30 02:03:03;;;;;;;12.93;3.72;;;;;;;;;;5082922;28;20212;-70
2023/06/30 02:05:29;;;;;;;10.95;4.10;;;;;;;;;;5088702;28;20278;-70
2023/06/30 02:07:54;;;;;;;8.45;4.32;;;;;;;;;;5084746;28;20201;-70
2023/06/30 02:10:19;;;;;;;11.27;5.30;;;;;;;;;;5087795;28;20195;-70
2023/06/30 02:12:45;;;;;;;10.10;4.38;;;;;;;;;;5082628;28;20195;-71
2023/06/30 02:15:10;;;;;;;10.80;4.28;;;;;;;;;;5083450;28;20284;-70
2023/06/30 02:17:36;;;;;;;14.52;4.43;;;;;;;;;;5085120;28;20719;-70
2023/06/30 02:20:09;;;;;;;12.02;4.18;;;;;;;;;;5079358;28;20263;-71
2023/06/30 02:22:35;;;;;;;13.07;4.55;;;;;;;;;;5086655;28;20192;-70
2023/06/30 02:25:00;;;;;;;11.80;4.38;;;;;;;;;;5087256;28;20196;-70
2023/06/30 02:27:27;;;;;;;14.23;4.00;;;;;;;;;;5073249;28;20314;-71
2023/06/30 02:29:52;;;;;;;14.00;4.63;;;;;;;;;;5086295;28;20189;-70
2023/06/30 02:32:17;;;;;;;13.65;4.22;;;;;;;;;;5084686;28;20188;-71
2023/06/30 02:34:43;;;;;;;8.27;4.60;;;;;;;;;;5078542;28;20199;-70
2023/06/30 02:37:08;;;;;;;9.80;4.05;;;;;;;;;;5082478;28;20601;-70
2023/06/30 02:39:34;;;;;;;13.07;4.22;;;;;;;;;;5082098;28;20192;-69
2023/06/30 02:41:59;;;;;;;10.25;3.97;;;;;;;;;;5068937;28;20224;-70
2023/06/30 02:44:24;;;;;;;12.52;3.92;;;;;;;;;;5085069;28;20212;-70
2023/06/30 02:46:50;;;;;;;10.30;4.07;;;;;;;;;;5079307;28;20200;-70
2023/06/30 02:49:15;;;;;;;14.02;4.63;;;;;;;;;;5078772;28;20726;-70
2023/06/30 02:51:41;;;;;;;7.97;4.40;;;;;;;;;;5086377;28;20702;-72
2023/06/30 02:54:06;;;;;;;11.00;3.58;;;;;;;;;;5083230;28;20188;-70
2023/06/30 02:56:31;;;;;;;16.00;3.92;;;;;;;;;;5082712;28;20212;-71
2023/06/30 02:58:57;;;;;;;10.48;3.65;;;;;;;;;;5080775;28;20280;-70
2023/06/30 03:01:22;;;;;;;11.40;3.53;;;;;;;;;;5087956;28;20691;-70
2023/06/30 03:03:48;;;;;;;13.13;3.30;;;;;;;;;;5085788;28;20192;-70
2023/06/30 03:06:14;;;;;;;10.57;3.90;;;;;;;;;;5087867;28;20607;-70
2023/06/30 03:08:39;;;;;;;11.27;3.85;;;;;;;;;;5081562;28;20186;-70
2023/06/30 03:11:05;;;;;;;11.25;4.10;;;;;;;;;;5081358;28;20200;-70
2023/06/30 03:13:30;;;;;;;9.13;3.97;;;;;;;;;;5083380;28;20212;-70
2023/06/30 03:15:55;;;;;;;10.40;4.20;;;;;;;;;;5089882;28;20184;-70
2023/06/30 03:18:21;;;;;;;14.90;4.13;;;;;;;;;;5074935;28;20205;-70
2023/06/30 03:20:47;;;;;;;14.18;4.18;;;;;;;;;;5083064;28;20192;-70
2023/06/30 03:23:14;;;;;;;13.18;4.03;;;;;;;;;;5085839;28;20503;-70
2023/06/30 03:25:39;;;;;;;11.10;3.80;;;;;;;;;;5079864;28;20271;-70
2023/06/30 03:28:05;;;;;;;15.68;4.13;;;;;;;;;;5074907;28;20187;-70
2023/06/30 03:30:30;;;;;;;12.07;3.92;;;;;;;;;;5079250;28;20185;-70
2023/06/30 03:32:55;;;;;;;12.75;3.90;;;;;;;;;;5080358;28;20188;-70
2023/06/30 03:35:21;;;;;;;13.90;4.35;;;;;;;;;;5085405;28;20191;-71
2023/06/30 03:37:46;;;;;;;11.02;4.22;;;;;;;;;;5079916;28;20612;-70
2023/06/30 03:40:12;;;;;;;11.38;3.58;;;;;;;;;;5075957;28;20240;-70
2023/06/30 03:42:38;;;;;;;12.95;3.50;;;;;;;;;;5071422;28;20612;-70
2023/06/30 03:45:04;;;;;;;13.52;3.55;;;;;;;;;;5086398;28;20661;-70
2023/06/30 03:47:29;;;;;;;9.77;3.20;;;;;;;;;;5074085;28;20189;-71
2023/06/30 03:49:55;;;;;;;10.48;3.60;;;;;;;;;;5083295;28;20213;-70
2023/06/30 03:52:20;;;;;;;12.13;3.88;;;;;;;;;;5068659;28;20181;-70
2023/06/30 03:54:46;;;;;;;8.63;3.10;;;;;;;;;;5085659;28;20286;-70
2023/06/30 03:57:11;;;;;;;12.60;3.40;;;;;;;;;;5077235;28;20249;-71
2023/06/30 03:59:36;;;;;;;11.80;3.63;;;;;;;;;;5074409;28;20242;-70
2023/06/30 04:02:02;;;;;;;14.02;4.30;;;;;;;;;;5077752;28;20215;-70
2023/06/30 04:04:27;;;;;;;13.05;3.92;;;;;;;;;;5079409;28;20180;-70
2023/06/30 04:06:53;;;;;;;8.20;3.17;;;;;;;;;;5088647;28;20246;-70
2023/06/30 04:09:18;;;;;;;9.00;3.22;;;;;;;;;;5078713;28;20188;-70
2023/06/30 04:11:43;;;;;;;9.98;2.80;;;;;;;;;;5083290;28;20199;-70
2023/06/30 04:14:09;;;;;;;14.00;4.05;;;;;;;;;;5082947;28;20196;-70
2023/06/30 04:16:34;;;;;;;9.23;3.67;;;;;;;;;;5082564;28;20181;-70
2023/06/30 04:18:59;;;;;;;9.70;3.30;;;;;;;;;;5080040;28;20612;-70
2023/06/30 04:21:25;;;;;;;12.07;3.45;;;;;;;;;;5081862;28;20184;-70
2023/06/30 04:23:50;;;;;;;13.18;2.95;;;;;;;;;;5083156;28;20220;-70
2023/06/30 04:26:18;;;;;;;8.63;2.88;;;;;;;;;;5087380;28;20192;-70
2023/06/30 04:28:45;;;;;;;11.75;3.85;;;;;;;;;;5087441;28;20242;-70
2023/06/30 04:31:10;;;;;;;9.40;3.60;;;;;;;;;;5074271;28;20262;-69
2023/06/30 04:33:36;;;;;;;6.93;2.88;;;;;;;;;;5083456;28;20196;-71
2023/06/30 04:36:01;;;;;;;9.43;2.95;;;;;;;;;;5081543;28;20211;-71
2023/06/30 04:38:27;;;;;;;9.02;2.58;;;;;;;;;;5081771;28;20622;-71
2023/06/30 04:40:52;;;;;;;15.52;2.83;;;;;;;;;;5083596;28;20764;-71
2023/06/30 04:43:18;;;;;;;9.50;2.92;;;;;;;;;;5075211;28;20266;-72
2023/06/30 04:45:43;;;;;;;10.05;3.03;;;;;;;;;;5079571;28;20216;-70
2023/06/30 04:48:09;;;;;;;10.13;2.53;;;;;;;;;;5086465;28;20220;-70
2023/06/30 04:50:35;;;;;;;10.20;2.38;;;;;;;;;;5083809;28;20196;-70
2023/06/30 04:53:01;;;;;;;10.55;2.42;;;;;;;;;;5076249;28;20187;-71
2023/06/30 04:55:26;;;;;;;7.97;2.60;;;;;;;;;;5084670;28;20192;-71
2023/06/30 04:57:53;;;;;;;7.78;2.38;;;;;;;;;;5079594;28;20547;-71
2023/06/30 05:00:19;;;;;;;11.93;2.75;;;;;;;;;;5087404;28;20192;-71
2023/06/30 05:02:45;;;;;;;9.77;2.40;;;;;;;;;;5088092;28;20821;-70
2023/06/30 05:05:10;;;;;;;9.68;2.47;;;;;;;;;;5078732;28;20211;-72
2023/06/30 05:07:35;;;;;;;5.15;2.20;;;;;;;;;;5083399;28;20222;-70
2023/06/30 05:10:01;;;;;;;9.07;2.38;;;;;;;;;;5079457;28;20283;-71
2023/06/30 05:12:26;;;;;;;9.35;2.80;;;;;;;;;;5087250;28;20698;-70
2023/06/30 05:14:52;;;;;;;8.73;2.47;;;;;;;;;;5089110;28;20211;-71
2023/06/30 05:17:17;;;;;;;7.75;2.88;;;;;;;;;;5078280;28;20261;-71
2023/06/30 05:19:42;;;;;;;7.55;2.40;;;;;;;;;;5078629;28;20362;-70
2023/06/30 05:22:08;;;;;;;12.00;2.88;;;;;;;;;;5083037;28;20188;-70
2023/06/30 05:24:33;;;;;;;12.02;2.75;;;;;;;;;;5074587;28;20698;-70
2023/06/30 05:26:59;;;;;;;9.07;2.47;;;;;;;;;;5084915;28;20826;-71
2023/06/30 05:29:28;;;;;;;8.10;2.55;;;;;;;;;;5081650;28;20191;-70
2023/06/30 05:31:53;;;;;;;12.48;2.60;;;;;;;;;;5081266;28;20188;-71
2023/06/30 05:34:18;;;;;;;10.15;2.85;;;;;;;;;;5082140;28;20643;-71
2023/06/30 05:36:47;;;;;;;7.18;2.63;;;;;;;;;;5077836;28;20196;-70
2023/06/30 05:39:13;;;;;;;7.50;2.33;;;;;;;;;;5086455;28;20188;-71
2023/06/30 05:41:39;;;;;;;9.27;2.20;;;;;;;;;;5086458;28;20255;-70
2023/06/30 05:44:06;;;;;;;9.93;2.72;;;;;;;;;;5081910;28;20265;-70
2023/06/30 05:46:37;;;;;;;7.30;2.17;;;;;;;;;;5087175;28;20248;-71
2023/06/30 05:49:05;;;;;;;9.00;2.90;;;;;;;;;;5076053;28;20185;-71
2023/06/30 05:51:35;;;;;;;11.02;3.05;;;;;;;;;;5084588;28;20275;-70
2023/06/30 05:54:01;;;;;;;7.20;2.10;;;;;;;;;;5082688;28;20419;-71
2023/06/30 05:56:28;;;;;;;8.27;2.17;;;;;;;;;;5082304;28;20548;-71
2023/06/30 05:58:53;;;;;;;5.65;2.40;;;;;;;;;;5079498;28;20269;-70
2023/06/30 06:01:20;;;;;;;9.38;2.50;;;;;;;;;;5079596;28;20250;-71
2023/06/30 06:03:45;;;;;;;10.90;2.80;;;;;;;;;;5077775;28;20263;-71
2023/06/30 06:06:11;;;;;;;10.10;3.15;;;;;;;;;;5077570;28;20245;-71
2023/06/30 06:08:39;;;;;;;7.47;2.10;;;;;;;;;;5075439;28;20220;-70
2023/06/30 06:11:05;;;;;;;8.80;2.08;;;;;;;;;;5077412;28;20191;-70
2023/06/30 06:13:34;;;;;;;7.13;2.40;;;;;;;;;;5079195;28;20180;-71
2023/06/30 06:16:00;;;;;;;7.30;2.05;;;;;;;;;;5074748;28;20188;-72
2023/06/30 06:18:26;;;;;;;5.47;1.90;;;;;;;;;;5080306;28;20306;-71
2023/06/30 06:20:51;;;;;;;6.68;2.00;;;;;;;;;;5076826;28;20715;-71
2023/06/30 06:23:17;;;;;;;10.93;2.30;;;;;;;;;;5079157;28;20208;-71
2023/06/30 06:25:42;;;;;;;10.77;1.88;;;;;;;;;;5071242;28;20275;-71
2023/06/30 06:28:07;;;;;;;8.20;1.88;;;;;;;;;;5074331;28;20208;-71
2023/06/30 06:30:33;;;;;;;7.78;1.73;;;;;;;;;;5084284;28;20184;-70
2023/06/30 06:32:58;;;;;;;9.13;1.40;;;;;;;;;;5082621;28;20603;-70
2023/06/30 06:35:23;;;;;;;2.95;1.35;;;;;;;;;;5083027;28;20505;-70
2023/06/30 06:37:49;;;;;;;14.40;1.90;;;;;;;;;;5074017;28;20258;-71
2023/06/30 06:40:14;;;;;;;5.32;1.60;;;;;;;;;;5077475;28;20229;-72
2023/06/30 06:42:39;;;;;;;3.97;1.50;;;;;;;;;;5084264;28;20647;-71
2023/06/30 06:45:05;;;;;;;9.40;1.70;;;;;;;;;;5085508;28;20204;-71
2023/06/30 06:48:08;;;;;;;6.80;1.60;;;;;;;;;;5078848;28;20215;-71
2023/06/30 06:50:34;;;;;;;4.65;1.42;;;;;;;;;;5083777;28;20252;-71
2023/06/30 06:52:59;;;;;;;7.57;2.00;;;;;;;;;;5073272;28;20192;-71
2023/06/30 06:55:24;;;;;;;6.53;2.20;;;;;;;;;;5071710;28;20188;-71
2023/06/30 06:57:50;;;;;;;7.85;1.55;;;;;;;;;;5079601;28;20699;-71
2023/06/30 07:00:16;;;;;;;7.70;1.35;;;;;;;;;;5073972;28;20196;-71
2023/06/30 07:02:42;;;;;;;5.38;1.40;;;;;;;;;;5084825;28;20192;-71
2023/06/30 07:05:07;;;;;;;9.77;1.80;;;;;;;;;;5087887;28;20188;-72
2023/06/30 07:07:32;;;;;;;5.05;1.60;;;;;;;;;;5070975;28;20193;-71
2023/06/30 07:09:58;;;;;;;9.68;1.48;;;;;;;;;;5082772;28;20194;-71
2023/06/30 07:12:23;;;;;;;9.80;1.60;;;;;;;;;;5071627;28;20644;-71
2023/06/30 07:14:48;;;;;;;9.18;2.08;;;;;;;;;;5074789;28;20200;-70
2023/06/30 07:17:14;;;;;;;8.30;1.80;;;;;;;;;;5069228;28;20277;-71
2023/06/30 07:19:39;;;;;;;7.60;1.60;;;;;;;;;;5075892;28;20576;-71
2023/06/30 07:22:05;;;;;;;9.85;1.55;;;;;;;;;;5073269;28;20281;-70
2023/06/30 07:24:30;;;;;;;6.80;1.42;;;;;;;;;;5072958;28;20196;-71
2023/06/30 07:26:55;;;;;;;9.68;1.75;;;;;;;;;;5072785;28;20205;-71
2023/06/30 07:29:21;;;;;;;5.40;1.30;;;;;;;;;;5074215;28;20288;-71
2023/06/30 07:31:46;;;;;;;4.57;1.38;;;;;;;;;;5081933;28;20765;-71
2023/06/30 07:34:12;;;;;;;4.97;1.15;;;;;;;;;;5072500;28;20188;-72
2023/06/30 07:36:37;;;;;;;6.03;1.50;;;;;;;;;;5082447;28;20188;-71
2023/06/30 07:39:03;;;;;;;7.00;1.52;;;;;;;;;;5068613;28;20308;-71
2023/06/30 07:41:34;;;;;;;4.53;1.13;;;;;;;;;;5068130;28;20538;-72
2023/06/30 07:44:01;;;;;;;4.88;1.40;;;;;;;;;;5069488;28;20180;-72
2023/06/30 07:46:26;;;;;;;8.38;1.83;;;;;;;;;;5079452;28;20648;-72
2023/06/30 07:48:51;;;;;;;5.68;1.40;;;;;;;;;;5069580;28;20192;-72
2023/06/30 07:51:17;;;;;;;4.07;1.33;;;;;;;;;;5086531;28;20283;-70
2023/06/30 07:53:42;;;;;;;7.82;1.50;;;;;;;;;;5088382;28;20195;-70
2023/06/30 07:56:07;;;;;;;5.70;1.70;;;;;;;;;;5084548;28;20189;-70
2023/06/30 07:58:33;;;;;;;3.90;1.40;;;;;;;;;;5071585;28;20204;-71
2023/06/30 08:00:58;;;;;;;4.80;1.50;;;;;;;;;;5073322;28;20220;-70
2023/06/30 08:03:23;;;;;;;6.43;1.60;;;;;;;;;;5070959;28;20603;-71
2023/06/30 08:05:49;;;;;;;5.75;1.80;;;;;;;;;;5075206;28;20219;-71
2023/06/30 08:08:14;;;;;;;3.97;1.40;;;;;;;;;;5082884;28;20216;-73
2023/06/30 08:10:40;;;;;;;6.57;1.20;;;;;;;;;;5079868;28;20180;-72
2023/06/30 08:13:05;;;;;;;3.45;1.27;;;;;;;;;;5070458;28;20211;-73
2023/06/30 08:15:31;;;;;;;6.25;1.40;;;;;;;;;;5077107;28;20195;-72
2023/06/30 08:17:56;;;;;;;7.82;1.35;;;;;;;;;;5077429;28;20534;-72
2023/06/30 08:20:22;;;;;;;4.43;1.30;;;;;;;;;;5069068;28;20196;-71
2023/06/30 08:22:47;;;;;;;3.53;1.27;;;;;;;;;;5074384;28;20606;-71
2023/06/30 08:25:12;;;;;;;3.83;1.38;;;;;;;;;;5085883;28;20645;-72
2023/06/30 08:27:38;;;;;;;4.85;1.40;;;;;;;;;;5080144;28;20208;-71
2023/06/30 08:30:04;;;;;;;8.23;1.30;;;;;;;;;;5070910;28;20265;-68
2023/06/30 08:32:29;;;;;;;5.32;1.30;;;;;;;;;;5089565;28;20188;-69
2023/06/30 08:34:54;;;;;;;3.17;0.95;;;;;;;;;;5076958;28;20645;-71
2023/06/30 08:37:20;;;;;;;2.97;1.30;;;;;;;;;;5075286;28;20234;-69
2023/06/30 08:39:45;;;;;;;5.75;1.27;;;;;;;;;;5072728;28;20547;-71
2023/06/30 08:42:13;;;;;;;5.45;1.88;;;;;;;;;;5079226;28;20196;-72
2023/06/30 08:44:43;;;;;;;3.78;1.45;;;;;;;;;;5075642;28;20266;-72
2023/06/30 08:47:13;;;;;;;5.22;1.38;;;;;;;;;;5081799;28;20671;-72
2023/06/30 08:49:38;;;;;;;2.95;1.38;;;;;;;;;;5080855;28;20191;-72
2023/06/30 08:52:04;;;;;;;6.72;1.10;;;;;;;;;;5085849;28;20635;-71
2023/06/30 08:54:31;;;;;;;5.43;1.40;;;;;;;;;;5077269;28;20219;-72
2023/06/30 08:56:57;;;;;;;4.38;1.25;;;;;;;;;;5083666;28;20657;-70
2023/06/30 08:59:22;;;;;;;4.97;1.20;;;;;;;;;;5084760;28;20215;-72
2023/06/30 09:01:48;;;;;;;5.43;1.30;;;;;;;;;;5072307;28;20239;-71
2023/06/30 09:04:14;;;;;;;6.93;1.30;;;;;;;;;;5076191;28;20560;-71
2023/06/30 09:06:48;;;;;;;5.57;1.73;;;;;;;;;;5087566;28;20223;-71
2023/06/30 09:09:27;;;;;;;4.32;1.17;;;;;;;;;;5077864;28;20664;-71
2023/06/30 09:11:53;;;;;;;5.95;1.17;;;;;;;;;;5073340;28;20196;-70
2023/06/30 09:14:20;;;;;;;4.85;0.98;;;;;;;;;;5078051;28;20177;-71
2023/06/30 09:16:45;;;;;;;5.05;1.17;;;;;;;;;;5074377;28;20193;-70
2023/06/30 09:19:12;;;;;;;5.03;1.10;;;;;;;;;;5073685;28;20193;-70
2023/06/30 09:21:38;;;;;;;4.85;1.35;;;;;;;;;;5072985;28;20188;-71
2023/06/30 09:24:03;;;;;;;3.50;1.20;;;;;;;;;;5088726;28;20726;-68
2023/06/30 09:26:30;;;;;;;3.50;1.00;;;;;;;;;;5075916;28;20280;-71
2023/06/30 09:28:56;;;;;;;4.82;1.70;;;;;;;;;;5073651;28;20309;-71
2023/06/30 09:31:29;;;;;;;4.82;1.55;;;;;;;;;;5073717;28;20265;-70
2023/06/30 09:34:07;;;;;;;2.58;1.20;;;;;;;;;;5075653;28;20674;-71
2023/06/30 09:36:34;;;;;;;4.82;1.20;;;;;;;;;;5088653;28;20490;-71
2023/06/30 09:38:59;;;;;;;3.08;1.00;;;;;;;;;;5070070;28;20406;-71
2023/06/30 09:41:26;;;;;;;4.50;1.38;;;;;;;;;;5076732;28;20228;-72
2023/06/30 09:43:58;;;;;;;2.70;0.75;;;;;;;;;;5076697;28;20643;-72
2023/06/30 09:46:23;;;;;;;4.70;1.27;;;;;;;;;;5080410;28;20192;-72
2023/06/30 09:48:53;;;;;;;2.95;1.02;;;;;;;;;;5076870;28;20655;-72
2023/06/30 09:51:20;;;;;;;3.28;1.10;;;;;;;;;;5076364;28;20187;-72
2023/06/30 09:53:46;;;;;;;5.97;1.20;;;;;;;;;;5087192;28;20214;-71
2023/06/30 09:56:21;;;;;;;4.20;1.00;;;;;;;;;;5073221;28;20223;-71
2023/06/30 09:58:47;;;;;;;5.40;1.10;;;;;;;;;;5086157;28;20215;-72
2023/06/30 10:01:17;;;;;;;2.83;1.25;;;;;;;;;;5080998;28;20304;-72
2023/06/30 10:03:50;;;;;;;3.92;1.13;;;;;;;;;;5087523;28;20195;-72
2023/06/30 10:06:18;;;;;;;3.50;1.10;;;;;;;;;;5074291;28;20200;-71
2023/06/30 10:08:45;;;;;;;2.90;1.10;;;;;;;;;;5084666;28;20565;-72
2023/06/30 10:11:10;;;;;;;3.75;1.20;;;;;;;;;;5072263;28;20206;-72
2023/06/30 10:13:38;;;;;;;3.90;0.80;;;;;;;;;;5072214;28;20222;-71
2023/06/30 10:16:05;;;;;;;2.95;1.05;;;;;;;;;;5075185;28;20369;-71
2023/06/30 10:18:35;;;;;;;2.53;1.20;;;;;;;;;;5085686;28;20197;-72
2023/06/30 10:21:01;;;;;;;2.70;1.25;;;;;;;;;;5080922;28;20189;-71
2023/06/30 10:23:27;;;;;;;2.35;0.82;;;;;;;;;;5084351;28;20313;-72
2023/06/30 10:25:54;;;;;;;5.45;1.15;;;;;;;;;;5083954;28;20659;-72
2023/06/30 10:28:20;;;;;;;1.55;0.80;;;;;;;;;;5082100;28;20517;-70
2023/06/30 10:30:49;;;;;;;6.32;0.90;;;;;;;;;;5075009;28;20192;-72
2023/06/30 10:33:14;;;;;;;3.63;0.95;;;;;;;;;;5085680;28;20214;-72
2023/06/30 10:35:40;;;;;;;2.28;0.93;;;;;;;;;;5081095;28;20612;-71
2023/06/30 10:38:06;;;;;;;4.25;0.90;;;;;;;;;;5081537;28;20208;-72
2023/06/30 10:40:32;;;;;;;2.92;0.80;;;;;;;;;;5080357;28;20267;-72
2023/06/30 10:42:58;;;;;;;2.70;1.00;;;;;;;;;;5074312;28;20656;-72
2023/06/30 10:45:33;;;;;;;2.42;0.98;;;;;;;;;;5075179;28;20200;-72
2023/06/30 10:48:08;;;;;;;4.38;1.13;;;;;;;;;;5081898;28;20310;-72
2023/06/30 10:50:42;;;;;;;3.00;0.90;;;;;;;;;;5089273;28;20682;-72
2023/06/30 10:53:08;;;;;;;4.95;1.08;;;;;;;;;;5071262;28;20209;-72
2023/06/30 10:55:33;;;;;;;4.28;1.00;;;;;;;;;;5068177;28;20656;-72
2023/06/30 10:58:02;;;;;;;4.10;1.30;;;;;;;;;;5082930;28;20180;-71
2023/06/30 11:00:31;;;;;;;2.80;0.77;;;;;;;;;;5082938;28;20200;-72
2023/06/30 11:02:57;;;;;;;4.28;0.90;;;;;;;;;;5082133;28;20638;-72
2023/06/30 11:05:31;;;;;;;2.38;1.08;;;;;;;;;;5080051;28;20195;-72
2023/06/30 11:08:11;;;;;;;3.47;1.13;;;;;;;;;;5078271;28;20613;-72
2023/06/30 11:10:45;;;;;;;2.40;0.95;;;;;;;;;;5085316;28;20378;-71
2023/06/30 11:13:10;;;;;;;4.07;1.20;;;;;;;;;;5080743;28;20188;-71
2023/06/30 11:15:42;;;;;;;3.95;1.42;;;;;;;;;;5086151;28;20180;-71
2023/06/30 11:18:15;;;;;;;5.15;1.40;;;;;;;;;;5071653;28;20200;-72
2023/06/30 11:21:04;;;;;;;2.05;1.00;;;;;;;;;;5085317;28;20195;-71
2023/06/30 11:23:32;;;;;;;3.30;1.05;;;;;;;;;;5078220;28;20188;-72
2023/06/30 11:26:10;;;;;;;4.75;1.13;;;;;;;;;;5079235;28;20242;-72
2023/06/30 11:28:36;;;;;;;3.63;1.10;;;;;;;;;;5077572;28;20204;-73
2023/06/30 11:31:01;;;;;;;4.93;1.38;;;;;;;;;;5070303;28;20196;-71
2023/06/30 11:33:27;;;;;;;3.50;1.02;;;;;;;;;;5076209;28;20617;-71
2023/06/30 11:35:53;;;;;;;3.65;1.35;;;;;;;;;;5080662;28;20195;-72
2023/06/30 11:38:18;;;;;;;5.60;1.13;;;;;;;;;;5082434;28;20191;-72
2023/06/30 11:40:46;;;;;;;4.65;1.40;;;;;;;;;;5083088;28;20239;-72
2023/06/30 11:43:12;;;;;;;4.93;1.08;;;;;;;;;;5075568;28;20187;-71
2023/06/30 11:45:38;;;;;;;3.05;1.20;;;;;;;;;;5075024;28;20267;-71
2023/06/30 11:48:05;;;;;;;2.65;1.25;;;;;;;;;;5073708;28;20682;-71
2023/06/30 11:50:30;;;;;;;10.73;1.83;;;;;;;;;;5078341;28;20192;-70
2023/06/30 11:52:56;;;;;;;7.20;1.35;;;;;;;;;;5080646;28;20188;-71
2023/06/30 11:55:22;;;;;;;4.53;1.58;;;;;;;;;;5064346;28;20193;-71
2023/06/30 11:57:48;;;;;;;2.25;1.08;;;;;;;;;;5076076;28;20315;-72
2023/06/30 12:00:25;;;;;;;2.28;1.10;;;;;;;;;;5069847;28;20202;-70
2023/06/30 12:02:50;;;;;;;3.60;1.20;;;;;;;;;;5078663;28;20191;-71
2023/06/30 12:05:18;;;;;;;3.85;1.38;;;;;;;;;;5074450;28;20206;-71
2023/06/30 12:07:46;;;;;;;5.10;1.45;;;;;;;;;;5073752;28;20209;-71
2023/06/30 12:10:12;;;;;;;4.25;1.35;;;;;;;;;;5090742;28;20267;-71
2023/06/30 12:12:39;;;;;;;2.78;1.40;;;;;;;;;;5080942;28;20196;-71
2023/06/30 12:15:08;;;;;;;3.42;1.25;;;;;;;;;;5079111;28;20187;-72
2023/06/30 12:17:37;;;;;;;3.25;1.20;;;;;;;;;;5088138;28;20529;-72
2023/06/30 12:20:04;;;;;;;4.45;1.20;;;;;;;;;;5076676;28;20213;-72
2023/06/30 12:22:30;;;;;;;4.53;1.15;;;;;;;;;;5083902;28;20613;-72
2023/06/30 12:24:56;;;;;;;3.92;1.23;;;;;;;;;;5080503;28;20184;-72
2023/06/30 12:27:22;;;;;;;5.80;1.15;;;;;;;;;;5079346;28;20302;-72
2023/06/30 12:29:48;;;;;;;3.33;1.20;;;;;;;;;;5077751;28;20264;-71
2023/06/30 12:32:14;;;;;;;3.10;1.30;;;;;;;;;;5092603;28;20229;-72
2023/06/30 12:34:39;;;;;;;3.72;1.52;;;;;;;;;;5082411;28;20238;-72
2023/06/30 12:37:05;;;;;;;4.88;1.50;;;;;;;;;;5086572;28;20258;-72
2023/06/30 12:39:31;;;;;;;5.35;1.25;;;;;;;;;;5090646;28;20184;-72
2023/06/30 12:41:56;;;;;;;2.90;1.45;;;;;;;;;;5081143;28;20239;-72
2023/06/30 12:44:22;;;;;;;3.70;1.50;;;;;;;;;;5088440;28;20271;-70
2023/06/30 12:47:05;;;;;;;2.58;1.27;;;;;;;;;;5083479;28;20252;-71
2023/06/30 12:49:31;;;;;;;4.55;1.80;;;;;;;;;;5074182;28;20188;-68
2023/06/30 12:51:58;;;;;;;3.53;1.25;;;;;;;;;;5075355;28;20204;-70
2023/06/30 12:54:23;;;;;;;3.97;1.40;;;;;;;;;;5089889;28;20200;-71
2023/06/30 12:56:49;;;;;;;3.20;1.38;;;;;;;;;;5080841;28;20215;-73
2023/06/30 12:59:15;;;;;;;6.22;1.40;;;;;;;;;;5090398;28;20783;-72
2023/06/30 13:01:40;;;;;;;8.18;1.52;;;;;;;;;;5078177;28;20217;-71
2023/06/30 13:04:06;;;;;;;5.45;1.40;;;;;;;;;;5081320;28;20289;-70
2023/06/30 13:06:31;;;;;;;4.45;1.48;;;;;;;;;;5087542;28;20188;-71
2023/06/30 13:08:56;;;;;;;6.03;1.50;;;;;;;;;;5085812;28;20546;-71
2023/06/30 13:11:23;;;;;;;4.57;1.50;;;;;;;;;;5078359;28;20283;-72
2023/06/30 13:13:48;;;;;;;4.45;1.48;;;;;;;;;;5085185;28;20188;-71
2023/06/30 13:16:13;;;;;;;5.70;2.08;;;;;;;;;;5088600;28;20192;-72
2023/06/30 13:18:39;;;;;;;3.50;1.40;;;;;;;;;;5074888;28;20214;-72
2023/06/30 13:21:05;;;;;;;8.32;1.77;;;;;;;;;;5080061;28;20203;-72
2023/06/30 13:23:30;;;;;;;5.35;1.45;;;;;;;;;;5081309;28;20202;-72
2023/06/30 13:25:55;;;;;;;5.32;1.40;;;;;;;;;;5082786;28;20184;-72
2023/06/30 13:28:21;;;;;;;4.97;1.42;;;;;;;;;;5081362;28;20786;-72
2023/06/30 13:30:46;;;;;;;4.95;1.52;;;;;;;;;;5082931;28;20200;-72
2023/06/30 13:33:12;;;;;;;5.10;1.40;;;;;;;;;;5078411;28;20180;-72
2023/06/30 13:35:38;;;;;;;3.72;1.50;;;;;;;;;;5083720;28;20655;-73
2023/06/30 13:38:03;;;;;;;7.82;1.77;;;;;;;;;;5086115;28;20208;-72
2023/06/30 13:40:29;;;;;;;6.13;1.65;;;;;;;;;;5082785;28;20227;-72
2023/06/30 13:42:54;;;;;;;3.58;1.48;;;;;;;;;;5073931;28;20263;-72
2023/06/30 13:45:20;;;;;;;6.88;1.48;;;;;;;;;;5081272;28;20267;-72
2023/06/30 13:47:46;;;;;;;3.60;1.60;;;;;;;;;;5086467;28;20337;-72
2023/06/30 13:50:12;;;;;;;2.92;1.50;;;;;;;;;;5077706;28;20271;-72
2023/06/30 13:52:38;;;;;;;4.13;1.67;;;;;;;;;;5076493;28;20606;-72
2023/06/30 13:55:03;;;;;;;4.25;1.85;;;;;;;;;;5078009;28;20189;-72
2023/06/30 13:57:29;;;;;;;4.28;1.80;;;;;;;;;;5083204;28;20213;-72
2023/06/30 13:59:54;;;;;;;5.85;1.90;;;;;;;;;;5077969;28;20224;-72
2023/06/30 14:02:20;;;;;;;5.43;1.92;;;;;;;;;;5077217;28;20698;-73
2023/06/30 14:04:46;;;;;;;2.60;1.40;;;;;;;;;;5085180;28;20298;-73
2023/06/30 14:07:11;;;;;;;3.22;1.55;;;;;;;;;;5081447;28;20733;-73
2023/06/30 14:09:37;;;;;;;5.75;1.73;;;;;;;;;;5081803;28;20584;-73
2023/06/30 14:12:02;;;;;;;3.28;1.80;;;;;;;;;;5075211;28;20189;-73
2023/06/30 14:14:27;;;;;;;4.65;1.65;;;;;;;;;;5069613;28;20565;-72
2023/06/30 14:16:53;;;;;;;5.00;1.98;;;;;;;;;;5068637;28;20684;-72
2023/06/30 14:19:18;;;;;;;2.65;1.42;;;;;;;;;;5074041;28;20189;-73
2023/06/30 14:21:44;;;;;;;2.95;1.60;;;;;;;;;;5073913;28;20184;-72
2023/06/30 14:24:09;;;;;;;4.75;1.95;;;;;;;;;;5077325;28;20552;-73
2023/06/30 14:26:35;;;;;;;3.92;1.90;;;;;;;;;;5081957;28;20253;-73
2023/06/30 14:29:00;;;;;;;5.75;1.73;;;;;;;;;;5073193;28;20314;-72
2023/06/30 14:31:26;;;;;;;5.60;1.60;;;;;;;;;;5072207;28;20193;-72
2023/06/30 14:33:51;;;;;;;2.78;1.63;;;;;;;;;;5077464;28;20220;-72
2023/06/30 14:36:17;;;;;;;3.28;1.63;;;;;;;;;;5089125;28;20271;-72